Blue Bay — V2CE6 — position and weather

sailwx.info

Track history (hours):
 
Tides and Currents Weather Stations Pressure Air Temp Water Temp Dewpoint Dewpoint Depression Visibility Wind Speed Wind Dir Waves Ship Positions

Blue Bay

Last reported at 2016-Feb-08 16:33 UTC. Time now 2016-Feb-10 02:41 UTC.
Position N 53°42' W 000°34'.

Length 89 m; draft 3.5 m.

Type: Cargo ship. MMSI: 304519000.

Date/timePositionNaut miles runAvg speedWind from/ knotsBaromVisibWave heightAir tempDewpointWater temp
2016-Feb-08 16:33N 53°42' W 000°34'1111.3
2016-Feb-08 15:34N 53°43' W 000°15'1211.5
2016-Feb-08 14:34N 53°36' W 000°00'9 9.5
2016-Feb-08 13:34N 53°33' E 000°15'9 9.2
2016-Feb-08 12:33N 53°28' E 000°28'3 3.3
2016-Feb-08 11:32N 53°29' E 000°33'6 2.9
2016-Feb-08 09:24N 53°27' E 000°43'3 3.2
2016-Feb-08 08:33N 53°26' E 000°47'9 3.8
2016-Feb-08 06:16N 53°21' E 000°58'1 1.7
2016-Feb-08 05:33N 53°20' E 001°00'6 5.6
2016-Feb-08 04:32N 53°24' E 000°52'6 5.8
2016-Feb-08 03:31N 53°27' E 000°44'6 5.4
2016-Feb-08 02:22N 53°31' E 000°35'3 4.0
2016-Feb-08 01:33N 53°33' E 000°32'3 3.5
2016-Feb-08 00:33N 53°30' E 000°29'3 2.5
2016-Feb-07 23:33N 53°32' E 000°26'1 1.4
2016-Feb-07 22:32N 53°31' E 000°28'6 5.6
2016-Feb-07 21:33N 53°28' E 000°35'8 7.3
2016-Feb-07 20:31N 53°24' E 000°46'9 8.8
2016-Feb-07 19:33N 53°21' E 000°59'9 8.8
2016-Feb-07 18:32N 53°14' E 001°10'9 8.9
2016-Feb-07 17:33N 53°08' E 001°19'9 9.4
2016-Feb-07 16:33N 53°01' E 001°30'1010.3
2016-Feb-07 15:33N 52°53' E 001°41'1211.8
2016-Feb-07 14:33N 52°45' E 001°55'1313.4
2016-Feb-07 13:33N 52°31' E 001°55'1313.2
2016-Feb-07 12:33N 52°18' E 001°53'1312.6
2016-Feb-07 11:33N 52°06' E 001°51'1211.6
2016-Feb-07 10:33N 51°54' E 001°50'1110.7
2016-Feb-07 09:33N 51°43' E 001°49'1010.1
2016-Feb-07 08:33N 51°33' E 001°50'1010.1
2016-Feb-07 07:33N 51°24' E 001°43'10 9.9
2016-Feb-07 06:33N 51°15' E 001°39'8 8.3
2016-Feb-07 05:33N 51°06' E 001°40'1010.5
2016-Feb-07 04:33N 50°58' E 001°30'1110.7
2016-Feb-07 03:33N 50°48' E 001°25'  
2016-Feb-04 15:28N 43°24' W 001°57'3 0.3
2016-Feb-04 04:31N 43°22' W 001°55'1 0.1
2016-Feb-03 05:33N 43°22' W 001°57'229 9.5
2016-Feb-02 05:33N 47°04' W 003°15'10 9.8
2016-Feb-02 04:33N 47°10' W 003°27'10 9.6
2016-Feb-02 03:33N 47°15' W 003°38'10 9.8
2016-Feb-02 02:33N 47°21' W 003°49'10 9.7
2016-Feb-02 01:33N 47°27' W 004°01'39 9.8
2016-Feb-01 21:33N 47°50' W 004°48'10 9.6
2016-Feb-01 20:34N 47°56' W 004°59'232 5.6
2016-Jan-31 03:28N 50°27' W 000°29'16 8.4
2016-Jan-31 01:31N 50°31' W 000°05'7 6.9
2016-Jan-31 00:33N 50°33' E 000°06'7 7.1
2016-Jan-30 23:33N 50°35' E 000°17'8 7.7
2016-Jan-30 22:33N 50°37' E 000°28'8 8.5
2016-Jan-30 21:33N 50°41' E 000°40'10 9.6
2016-Jan-30 20:33N 50°47' E 000°52'10 9.8
2016-Jan-30 19:33N 50°53' E 001°05'9 9.1
2016-Jan-30 18:34N 50°58' E 001°16'8 8.2
2016-Jan-30 17:33N 51°04' E 001°26'7 7.1
2016-Jan-30 16:34N 51°08' E 001°34'7 6.9
2016-Jan-30 15:34N 51°15' E 001°39'8 7.6
2016-Jan-30 14:33N 51°22' E 001°35'8 8.2
2016-Jan-30 13:33N 51°25' E 001°23'1 1.1
2016-Jan-30 12:34N 51°25' E 001°21'0 0.1
2016-Jan-30 11:34N 51°25' E 001°21'0 0.0
2016-Jan-30 10:34N 51°25' E 001°21'0 0.0
2016-Jan-30 09:34N 51°25' E 001°21'0 0.0
2016-Jan-30 08:34N 51°25' E 001°21'0 0.0
2016-Jan-30 07:34N 51°25' E 001°21'0 0.0
2016-Jan-30 06:34N 51°25' E 001°21'0 0.0
2016-Jan-30 05:34N 51°25' E 001°21'0 0.0
2016-Jan-30 04:33N 51°25' E 001°21'0 0.1
2016-Jan-30 03:33N 51°25' E 001°21'0 0.1
2016-Jan-30 02:34N 51°25' E 001°21'0 0.0
2016-Jan-30 01:34N 51°25' E 001°21'0 0.0
2016-Jan-30 00:33N 51°25' E 001°21'0 0.1
2016-Jan-29 23:33N 51°25' E 001°21'0 0.1
2016-Jan-29 22:34N 51°25' E 001°21'0 0.0
2016-Jan-29 21:34N 51°25' E 001°21'0 0.0
2016-Jan-29 20:34N 51°25' E 001°21'0 0.0
2016-Jan-29 19:33N 51°25' E 001°21'0 0.0
2016-Jan-29 18:33N 51°25' E 001°21'0 0.0
2016-Jan-29 17:34N 51°25' E 001°21'0 0.0
2016-Jan-29 16:33N 51°25' E 001°21'  
Track history (hours):
 
Tides and Currents Weather Stations Pressure Air Temp Water Temp Dewpoint Dewpoint Depression Visibility Wind Speed Wind Dir Waves Ship Positions

Blue Bay

Last reported at 2016-Feb-08 16:33 UTC. Time now 2016-Feb-10 02:41 UTC.
Position N 53°42' W 000°34'.

Length 89 m; draft 3.5 m.

Type: Cargo ship. MMSI: 304519000.

Date/timePositionNaut miles runAvg speedWind from/ knotsBaromVisibWave heightAir tempDewpointWater temp
2016-Feb-08 16:33N 53°42' W 000°34'1111.3
2016-Feb-08 15:34N 53°43' W 000°15'1211.5
2016-Feb-08 14:34N 53°36' W 000°00'9 9.5
2016-Feb-08 13:34N 53°33' E 000°15'9 9.2
2016-Feb-08 12:33N 53°28' E 000°28'3 3.3
2016-Feb-08 11:32N 53°29' E 000°33'6 2.9
2016-Feb-08 09:24N 53°27' E 000°43'3 3.2
2016-Feb-08 08:33N 53°26' E 000°47'9 3.8
2016-Feb-08 06:16N 53°21' E 000°58'1 1.7
2016-Feb-08 05:33N 53°20' E 001°00'6 5.6
2016-Feb-08 04:32N 53°24' E 000°52'6 5.8
2016-Feb-08 03:31N 53°27' E 000°44'6 5.4
2016-Feb-08 02:22N 53°31' E 000°35'3 4.0
2016-Feb-08 01:33N 53°33' E 000°32'3 3.5
2016-Feb-08 00:33N 53°30' E 000°29'3 2.5
2016-Feb-07 23:33N 53°32' E 000°26'1 1.4
2016-Feb-07 22:32N 53°31' E 000°28'6 5.6
2016-Feb-07 21:33N 53°28' E 000°35'8 7.3
2016-Feb-07 20:31N 53°24' E 000°46'9 8.8
2016-Feb-07 19:33N 53°21' E 000°59'9 8.8
2016-Feb-07 18:32N 53°14' E 001°10'9 8.9
2016-Feb-07 17:33N 53°08' E 001°19'9 9.4
2016-Feb-07 16:33N 53°01' E 001°30'1010.3
2016-Feb-07 15:33N 52°53' E 001°41'1211.8
2016-Feb-07 14:33N 52°45' E 001°55'1313.4
2016-Feb-07 13:33N 52°31' E 001°55'1313.2
2016-Feb-07 12:33N 52°18' E 001°53'1312.6
2016-Feb-07 11:33N 52°06' E 001°51'1211.6
2016-Feb-07 10:33N 51°54' E 001°50'1110.7
2016-Feb-07 09:33N 51°43' E 001°49'1010.1
2016-Feb-07 08:33N 51°33' E 001°50'1010.1
2016-Feb-07 07:33N 51°24' E 001°43'10 9.9
2016-Feb-07 06:33N 51°15' E 001°39'8 8.3
2016-Feb-07 05:33N 51°06' E 001°40'1010.5
2016-Feb-07 04:33N 50°58' E 001°30'1110.7
2016-Feb-07 03:33N 50°48' E 001°25'  
2016-Feb-04 15:28N 43°24' W 001°57'3 0.3
2016-Feb-04 04:31N 43°22' W 001°55'1 0.1
2016-Feb-03 05:33N 43°22' W 001°57'229 9.5
2016-Feb-02 05:33N 47°04' W 003°15'10 9.8
2016-Feb-02 04:33N 47°10' W 003°27'10 9.6
2016-Feb-02 03:33N 47°15' W 003°38'10 9.8
2016-Feb-02 02:33N 47°21' W 003°49'10 9.7
2016-Feb-02 01:33N 47°27' W 004°01'39 9.8
2016-Feb-01 21:33N 47°50' W 004°48'10 9.6
2016-Feb-01 20:34N 47°56' W 004°59'232 5.6
2016-Jan-31 03:28N 50°27' W 000°29'16 8.4
2016-Jan-31 01:31N 50°31' W 000°05'7 6.9
2016-Jan-31 00:33N 50°33' E 000°06'7 7.1
2016-Jan-30 23:33N 50°35' E 000°17'8 7.7
2016-Jan-30 22:33N 50°37' E 000°28'8 8.5
2016-Jan-30 21:33N 50°41' E 000°40'10 9.6
2016-Jan-30 20:33N 50°47' E 000°52'10 9.8
2016-Jan-30 19:33N 50°53' E 001°05'9 9.1
2016-Jan-30 18:34N 50°58' E 001°16'8 8.2
2016-Jan-30 17:33N 51°04' E 001°26'7 7.1
2016-Jan-30 16:34N 51°08' E 001°34'7 6.9
2016-Jan-30 15:34N 51°15' E 001°39'8 7.6
2016-Jan-30 14:33N 51°22' E 001°35'8 8.2
2016-Jan-30 13:33N 51°25' E 001°23'1 1.1
2016-Jan-30 12:34N 51°25' E 001°21'0 0.1
2016-Jan-30 11:34N 51°25' E 001°21'0 0.0
2016-Jan-30 10:34N 51°25' E 001°21'0 0.0
2016-Jan-30 09:34N 51°25' E 001°21'0 0.0
2016-Jan-30 08:34N 51°25' E 001°21'0 0.0
2016-Jan-30 07:34N 51°25' E 001°21'0 0.0
2016-Jan-30 06:34N 51°25' E 001°21'0 0.0
2016-Jan-30 05:34N 51°25' E 001°21'0 0.0
2016-Jan-30 04:33N 51°25' E 001°21'0 0.1
2016-Jan-30 03:33N 51°25' E 001°21'0 0.1
2016-Jan-30 02:34N 51°25' E 001°21'0 0.0
2016-Jan-30 01:34N 51°25' E 001°21'0 0.0
2016-Jan-30 00:33N 51°25' E 001°21'0 0.1
2016-Jan-29 23:33N 51°25' E 001°21'0 0.1
2016-Jan-29 22:34N 51°25' E 001°21'0 0.0
2016-Jan-29 21:34N 51°25' E 001°21'0 0.0
2016-Jan-29 20:34N 51°25' E 001°21'0 0.0
2016-Jan-29 19:33N 51°25' E 001°21'0 0.0
2016-Jan-29 18:33N 51°25' E 001°21'0 0.0
2016-Jan-29 17:34N 51°25' E 001°21'0 0.0
2016-Jan-29 16:33N 51°25' E 001°21'  

Dump ship's entire track history